createdAt,value
2023-01-11T00:00:46.703Z,1.45
2023-01-11T00:03:17.504Z,1.17
2023-01-11T00:05:46.438Z,1.58
2023-01-11T00:08:15.058Z,1.30
2023-01-11T00:10:43.360Z,1.10
2023-01-11T00:13:11.672Z,1.30
2023-01-11T00:15:40.751Z,1.55
2023-01-11T00:18:09.136Z,1.20
2023-01-11T00:20:40.271Z,1.17
2023-01-11T00:23:09.245Z,1.50
2023-01-11T00:25:38.323Z,1.63
2023-01-11T00:28:07.398Z,1.40
2023-01-11T00:30:36.772Z,1.40
2023-01-11T00:33:05.541Z,1.27
2023-01-11T00:35:34.011Z,1.38
2023-01-11T00:38:03.811Z,1.60
2023-01-11T00:40:32.121Z,1.08
2023-01-11T00:43:17.801Z,1.40
2023-01-11T00:46:15.042Z,1.27
2023-01-11T00:48:43.421Z,1.60
2023-01-11T00:51:11.805Z,0.93
2023-01-11T00:53:41.551Z,1.25
2023-01-11T00:56:09.921Z,1.42
2023-01-11T00:58:38.372Z,1.10
2023-01-11T01:01:10.232Z,1.30
2023-01-11T01:03:38.546Z,0.82
2023-01-11T01:06:07.251Z,1.17
2023-01-11T01:08:35.747Z,1.42
2023-01-11T01:11:05.497Z,1.50
2023-01-11T01:13:51.162Z,1.48
2023-01-11T01:16:20.007Z,1.23
2023-01-11T01:18:48.457Z,1.13
2023-01-11T01:21:16.839Z,1.00
2023-01-11T01:23:45.178Z,1.17
2023-01-11T01:26:14.931Z,1.17
2023-01-11T01:28:43.348Z,1.17
2023-01-11T01:31:11.795Z,1.17
2023-01-11T01:33:40.449Z,1.42
2023-01-11T01:36:09.472Z,1.30
2023-01-11T01:38:37.860Z,1.65
2023-01-11T01:41:06.557Z,1.38
2023-01-11T01:43:51.518Z,1.70
2023-01-11T01:46:21.714Z,1.63
2023-01-11T01:48:57.064Z,1.90
2023-01-11T01:51:29.329Z,1.55
2023-01-11T01:54:03.134Z,1.50
2023-01-11T01:56:35.815Z,1.77
2023-01-11T01:59:12.852Z,1.85
2023-01-11T02:01:50.131Z,1.27
2023-01-11T02:04:24.683Z,1.40
2023-01-11T02:06:58.148Z,1.50
2023-01-11T02:09:31.574Z,1.20
2023-01-11T02:12:01.402Z,1.70
2023-01-11T02:14:33.219Z,1.30
2023-01-11T02:17:01.715Z,1.40
2023-01-11T02:19:52.685Z,1.50
2023-01-11T02:22:53.421Z,1.55
2023-01-11T02:26:00.499Z,1.70
2023-01-11T02:28:35.785Z,1.80
2023-01-11T02:31:12.882Z,1.90
2023-01-11T02:33:49.666Z,1.50
2023-01-11T02:36:29.248Z,1.50
2023-01-11T02:39:04.659Z,1.60
2023-01-11T02:41:56.078Z,1.58
2023-01-11T02:44:49.580Z,2.40
2023-01-11T02:47:23.404Z,1.83
2023-01-11T02:50:04.488Z,1.23
2023-01-11T02:52:40.149Z,1.27
2023-01-11T02:55:11.922Z,1.33
2023-01-11T02:57:42.858Z,1.42
2023-01-11T03:00:14.550Z,1.70
2023-01-11T03:02:42.949Z,1.70
2023-01-11T03:05:15.063Z,1.17
2023-01-11T03:07:58.891Z,1.60
2023-01-11T03:10:40.824Z,1.67
2023-01-11T03:13:20.396Z,1.38
2023-01-11T03:16:11.222Z,1.25
2023-01-11T03:18:50.008Z,1.52
2023-01-11T03:21:43.042Z,1.40
2023-01-11T03:24:18.828Z,1.63
2023-01-11T03:26:58.062Z,3.25
2023-01-11T03:29:32.939Z,2.05
2023-01-11T03:32:21.620Z,1.88
2023-01-11T03:34:59.133Z,2.10
2023-01-11T03:37:32.723Z,2.60
2023-01-11T03:40:08.216Z,1.60
2023-01-11T03:43:00.476Z,1.17
2023-01-11T03:45:32.223Z,1.63
2023-01-11T03:48:04.398Z,1.70
2023-01-11T03:50:35.401Z,1.75
2023-01-11T03:53:07.405Z,1.40
2023-01-11T03:55:39.830Z,1.50
2023-01-11T03:58:09.294Z,0.85
2023-01-11T04:00:38.947Z,0.98
2023-01-11T04:03:09.842Z,0.80
2023-01-11T04:05:40.025Z,0.93
2023-01-11T04:08:08.333Z,0.90
2023-01-11T04:10:36.705Z,1.20
2023-01-11T04:13:05.398Z,1.17
2023-01-11T04:15:34.966Z,0.80
2023-01-11T04:18:05.289Z,1.23
2023-01-11T04:20:37.314Z,0.90
2023-01-11T04:23:06.589Z,0.80
2023-01-11T04:25:35.613Z,0.60
2023-01-11T04:28:04.016Z,0.70
2023-01-11T04:30:32.293Z,1.13
2023-01-11T04:33:00.731Z,1.02
2023-01-11T04:35:29.071Z,1.20
2023-01-11T04:37:59.379Z,0.98
2023-01-11T04:40:27.637Z,1.10
2023-01-11T04:42:54.911Z,1.42
2023-01-11T04:45:23.317Z,1.00
2023-01-11T04:47:56.389Z,1.00
2023-01-11T04:50:25.171Z,0.88
2023-01-11T04:52:53.921Z,1.20
2023-01-11T04:55:23.728Z,1.23
2023-01-11T04:57:52.043Z,1.15
2023-01-11T05:00:20.933Z,0.80
2023-01-11T05:02:49.264Z,1.10
2023-01-11T05:05:17.536Z,1.17
2023-01-11T05:07:45.919Z,0.80
2023-01-11T05:10:14.263Z,0.80
2023-01-11T05:12:44.017Z,1.00
2023-01-11T05:15:12.848Z,1.23
2023-01-11T05:17:41.192Z,1.00
2023-01-11T05:20:11.248Z,1.00
2023-01-11T05:22:39.591Z,1.10
2023-01-11T05:25:08.991Z,1.02
2023-01-11T05:27:37.293Z,1.40
2023-01-11T05:30:08.520Z,1.10
2023-01-11T05:32:36.844Z,1.48
2023-01-11T05:35:05.356Z,1.30
2023-01-11T05:37:33.772Z,1.65
2023-01-11T05:40:02.469Z,1.30
2023-01-11T05:42:30.875Z,1.50
2023-01-11T05:45:16.415Z,1.42
2023-01-11T05:47:46.154Z,1.60
2023-01-11T05:50:14.539Z,1.40
2023-01-11T05:52:42.777Z,1.10
2023-01-11T05:55:11.787Z,1.05
2023-01-11T05:57:42.688Z,1.00
2023-01-11T06:00:12.883Z,1.17
2023-01-11T06:02:41.369Z,1.10
2023-01-11T06:05:11.850Z,1.70
2023-01-11T06:07:40.275Z,1.30
2023-01-11T06:10:10.063Z,1.10
2023-01-11T06:12:39.121Z,0.77
2023-01-11T06:15:09.087Z,1.20
2023-01-11T06:17:37.413Z,0.90
2023-01-11T06:20:06.837Z,1.02
2023-01-11T06:22:36.633Z,0.70
2023-01-11T06:25:05.338Z,0.60
2023-01-11T06:27:33.643Z,0.60
2023-01-11T06:30:01.960Z,0.65
2023-01-11T06:32:30.899Z,0.90
2023-01-11T06:34:59.222Z,0.82
2023-01-11T06:37:27.575Z,0.80
2023-01-11T06:39:57.305Z,1.58
2023-01-11T06:42:25.996Z,1.02
2023-01-11T06:44:54.314Z,1.17
2023-01-11T06:47:22.757Z,1.20
2023-01-11T06:49:51.058Z,1.40
2023-01-11T06:52:19.426Z,0.90
2023-01-11T06:54:47.801Z,1.20
2023-01-11T06:57:17.900Z,1.20
2023-01-11T06:59:46.243Z,1.33
2023-01-11T07:02:14.657Z,1.13
2023-01-11T07:04:42.996Z,1.40
2023-01-11T07:07:11.288Z,1.20
2023-01-11T07:09:39.787Z,1.15
2023-01-11T07:12:08.115Z,0.80
2023-01-11T07:14:37.924Z,0.88
2023-01-11T07:17:06.261Z,1.00
2023-01-11T07:19:34.594Z,0.70
2023-01-11T07:22:02.995Z,1.00
2023-01-11T07:24:31.316Z,0.60
2023-01-11T07:27:01.405Z,0.50
2023-01-11T07:29:30.017Z,0.52
2023-01-11T07:32:00.121Z,0.50
2023-01-11T07:34:28.538Z,1.00
2023-01-11T07:36:56.971Z,0.40
2023-01-11T07:39:38.469Z,0.50
2023-01-11T07:42:30.042Z,0.40
2023-01-11T07:44:58.343Z,0.35
2023-01-11T07:47:28.221Z,0.30
2023-01-11T07:49:56.535Z,0.30
2023-01-11T07:52:24.923Z,0.40
2023-01-11T07:54:53.419Z,0.50
2023-01-11T07:57:21.758Z,0.40
2023-01-11T07:59:50.113Z,0.60
2023-01-11T08:02:18.466Z,0.40
2023-01-11T08:04:48.325Z,0.30
2023-01-11T08:07:16.679Z,0.30
2023-01-11T08:09:45.055Z,0.47
2023-01-11T08:12:30.289Z,0.22
2023-01-11T08:14:58.719Z,0.10
2023-01-11T08:17:27.245Z,0.10
2023-01-11T08:19:57.170Z,0.10
2023-01-11T08:22:25.566Z,0.20
2023-01-11T08:24:53.980Z,0.10
2023-01-11T08:27:22.332Z,0.10
2023-01-11T08:29:50.781Z,0.20
2023-01-11T08:32:19.155Z,0.10
2023-01-11T08:34:48.076Z,0.20
2023-01-11T08:37:18.035Z,0.30
2023-01-11T08:39:46.409Z,0.50
2023-01-11T08:42:14.687Z,0.57
2023-01-11T08:44:43.112Z,0.30
2023-01-11T08:47:11.484Z,0.68
2023-01-11T08:49:42.973Z,0.70
2023-01-11T08:52:14.841Z,0.65
2023-01-11T08:54:45.033Z,0.28
2023-01-11T08:57:13.510Z,0.30
2023-01-11T08:59:41.864Z,0.20
2023-01-11T09:02:13.356Z,0.28
2023-01-11T09:04:42.837Z,0.38
2023-01-11T09:07:11.374Z,0.15
2023-01-11T09:09:39.789Z,0.30
2023-01-11T09:12:09.845Z,0.15
2023-01-11T09:14:38.121Z,0.22
2023-01-11T09:17:06.629Z,0.20
2023-01-11T09:19:34.995Z,0.40
2023-01-11T09:22:03.536Z,0.10
2023-01-11T09:24:32.095Z,0.40
2023-01-11T09:27:01.088Z,0.35
2023-01-11T09:29:31.018Z,0.70
2023-01-11T09:31:59.433Z,0.30
2023-01-11T09:34:27.925Z,0.30
2023-01-11T09:37:00.106Z,0.95
2023-01-11T09:39:28.997Z,2.30
2023-01-11T09:42:29.615Z,0.40
2023-01-11T09:45:05.539Z,0.25
2023-01-11T09:47:41.054Z,0.20
2023-01-11T09:50:16.497Z,0.10
2023-01-11T09:52:47.625Z,0.20
2023-01-11T09:55:23.168Z,0.30
2023-01-11T09:58:01.358Z,0.20
2023-01-11T10:00:37.296Z,0.28
2023-01-11T10:03:26.110Z,0.30
2023-01-11T10:06:09.216Z,0.03
2023-01-11T10:18:31.654Z,0.20
2023-01-11T10:18:42.845Z,0.17
2023-01-11T10:20:55.269Z,0.20
2023-01-11T10:23:29.143Z,0.10
2023-01-11T10:26:01.974Z,0.93
2023-01-11T10:28:39.836Z,0.20
2023-01-11T10:31:29.989Z,0.10
2023-01-11T10:34:18.698Z,0.20
2023-01-11T10:37:11.055Z,0.00
2023-01-11T10:40:04.178Z,0.10
2023-01-11T10:42:43.773Z,0.10
2023-01-11T10:45:18.596Z,0.00
2023-01-11T10:47:58.532Z,0.10
2023-01-11T10:50:33.761Z,0.10
2023-01-11T10:53:15.299Z,0.20
2023-01-11T10:55:48.497Z,0.50
2023-01-11T10:58:32.808Z,1.48
2023-01-11T11:01:13.323Z,0.70
2023-01-11T11:04:00.981Z,0.32
2023-01-11T11:06:39.591Z,0.30
2023-01-11T11:09:17.778Z,0.20
2023-01-11T11:11:53.362Z,0.30
2023-01-11T11:14:29.149Z,0.40
2023-01-11T11:17:06.731Z,0.20
2023-01-11T11:19:35.396Z,0.20
2023-01-11T11:22:05.124Z,0.10
2023-01-11T11:24:38.363Z,0.30
2023-01-11T11:27:15.899Z,0.25
2023-01-11T11:29:50.668Z,0.35
2023-01-11T11:32:24.626Z,0.43
2023-01-11T11:34:54.172Z,0.30
2023-01-11T11:37:26.781Z,0.10
2023-01-11T11:39:56.480Z,0.38
2023-01-11T11:42:25.826Z,0.40
2023-01-11T11:45:16.220Z,0.20
2023-01-11T11:47:45.299Z,0.88
2023-01-11T11:50:43.784Z,0.82
2023-01-11T11:53:23.814Z,1.00
2023-01-11T11:55:53.942Z,0.40
2023-01-11T11:58:25.437Z,0.10
2023-01-11T12:00:54.625Z,0.22
2023-01-11T12:03:28.223Z,0.20
2023-01-11T12:08:29.910Z,0.20
2023-01-11T12:11:01.235Z,0.10
2023-01-11T12:13:32.610Z,0.30
2023-01-11T12:16:03.137Z,0.20
2023-01-11T12:18:34.138Z,0.30
2023-01-11T12:21:18.280Z,0.70
2023-01-11T12:23:48.103Z,0.40
2023-01-11T12:26:23.209Z,0.85
2023-01-11T12:29:31.069Z,0.50
2023-01-11T12:32:12.590Z,0.30
2023-01-11T12:34:55.975Z,0.30
2023-01-11T12:37:40.367Z,0.43
2023-01-11T12:40:19.105Z,0.30
2023-01-11T12:43:03.984Z,1.20
2023-01-11T12:45:43.540Z,0.93
2023-01-11T12:48:33.634Z,0.40
2023-01-11T12:51:14.200Z,0.63
2023-01-11T12:53:57.637Z,0.20
2023-01-11T12:56:48.956Z,0.10
2023-01-11T12:59:34.849Z,0.30
2023-01-11T13:02:20.946Z,0.30
2023-01-11T13:05:00.188Z,0.10
2023-01-11T13:07:47.265Z,0.20
2023-01-11T13:10:32.107Z,0.30
2023-01-11T13:13:08.639Z,0.20
2023-01-11T13:15:46.977Z,2.30
2023-01-11T13:18:24.589Z,0.10
2023-01-11T13:21:02.511Z,0.20
2023-01-11T13:23:40.401Z,0.20
2023-01-11T13:26:18.479Z,0.20
2023-01-11T13:28:52.797Z,0.10
2023-01-11T13:31:21.593Z,0.10
2023-01-11T13:33:56.497Z,0.10
2023-01-11T13:36:30.996Z,0.00
2023-01-11T13:39:04.544Z,0.10
2023-01-11T13:41:36.614Z,0.10
2023-01-11T13:44:13.058Z,0.10
2023-01-11T13:46:56.586Z,0.17
2023-01-11T13:49:40.813Z,0.30
2023-01-11T13:52:14.864Z,0.10
2023-01-11T13:54:53.279Z,0.30
2023-01-11T13:57:28.667Z,0.20
2023-01-11T14:00:04.888Z,0.13
2023-01-11T14:02:41.347Z,0.10
2023-01-11T14:05:16.863Z,0.10
2023-01-11T14:08:05.241Z,0.20
2023-01-11T14:10:50.929Z,0.40
2023-01-11T14:14:16.724Z,0.35
2023-01-11T14:17:01.325Z,0.40
2023-01-11T14:19:35.779Z,0.25
2023-01-11T14:22:15.131Z,0.20
2023-01-11T14:24:54.352Z,0.10
2023-01-11T14:27:52.191Z,0.10
2023-01-11T14:30:55.022Z,0.20
2023-01-11T14:33:59.475Z,1.90
2023-01-11T14:36:52.528Z,0.38
2023-01-11T14:39:49.702Z,0.45
2023-01-11T14:43:03.940Z,0.55
2023-01-11T14:45:48.418Z,0.47
2023-01-11T14:48:29.056Z,0.40
2023-01-11T14:51:28.112Z,0.50
2023-01-11T14:54:04.873Z,0.32
2023-01-11T14:56:53.864Z,0.30
2023-01-11T14:59:34.360Z,0.20
2023-01-11T15:02:27.657Z,0.30
2023-01-11T15:05:17.510Z,0.40
2023-01-11T15:07:51.928Z,0.10
2023-01-11T15:10:48.357Z,0.30
2023-01-11T15:13:21.118Z,0.25
2023-01-11T15:16:07.429Z,0.50
2023-01-11T15:18:44.870Z,0.60
2023-01-11T15:21:18.729Z,0.80
2023-01-11T15:23:55.044Z,1.00
2023-01-11T15:26:25.096Z,1.50
2023-01-11T15:28:55.616Z,0.80
2023-01-11T15:31:38.913Z,0.47
2023-01-11T15:34:29.033Z,1.73
2023-01-11T15:37:23.175Z,0.38
2023-01-11T15:39:58.509Z,2.60
2023-01-11T15:43:09.503Z,2.22
2023-01-11T15:46:17.692Z,0.80
2023-01-11T15:49:05.240Z,0.38
2023-01-11T15:52:00.659Z,0.45
2023-01-11T15:55:04.232Z,0.60
2023-01-11T15:58:13.965Z,0.80
2023-01-11T16:01:11.247Z,1.27
2023-01-11T16:03:59.602Z,1.02
2023-01-11T16:06:42.130Z,0.90
2023-01-11T16:09:26.052Z,2.58
2023-01-11T16:12:07.785Z,0.75
2023-01-11T16:15:14.824Z,1.25
2023-01-11T16:17:43.939Z,1.02
2023-01-11T16:20:23.791Z,0.80
2023-01-11T16:22:55.688Z,0.90
2023-01-11T16:25:27.110Z,1.23
2023-01-11T16:27:58.572Z,2.00
2023-01-11T16:30:28.094Z,1.70
2023-01-11T16:33:18.778Z,1.08
2023-01-11T16:35:47.142Z,1.42
2023-01-11T16:38:19.311Z,1.42
2023-01-11T16:40:51.053Z,1.30
2023-01-11T16:43:24.835Z,1.00
2023-01-11T16:48:23.993Z,2.10
2023-01-11T16:51:02.487Z,1.60
2023-01-11T16:53:32.104Z,1.75
2023-01-11T16:56:05.688Z,1.40
2023-01-11T16:58:36.685Z,1.27
2023-01-11T17:01:07.526Z,1.48
2023-01-11T17:03:38.636Z,1.70
2023-01-11T17:06:19.812Z,1.63
2023-01-11T17:08:50.933Z,1.70
2023-01-11T17:11:25.603Z,1.70
2023-01-11T17:14:36.084Z,1.38
2023-01-11T17:17:07.143Z,1.90
2023-01-11T17:19:38.429Z,1.90
2023-01-11T17:22:10.133Z,2.47
2023-01-11T17:24:42.430Z,1.70
2023-01-11T17:27:20.260Z,1.58
2023-01-11T17:29:53.271Z,2.00
2023-01-11T17:32:25.654Z,1.83
2023-01-11T17:34:54.397Z,1.70
2023-01-11T17:37:23.842Z,1.70
2023-01-11T17:39:54.404Z,2.33
2023-01-11T17:42:41.062Z,2.45
2023-01-11T17:45:21.112Z,2.05
2023-01-11T17:47:52.468Z,1.85
2023-01-11T17:50:29.087Z,2.08
2023-01-11T17:53:06.816Z,1.90
2023-01-11T17:55:36.148Z,1.38
2023-01-11T17:58:18.970Z,2.20
2023-01-11T18:01:11.581Z,2.30
2023-01-11T18:03:44.719Z,1.83
2023-01-11T18:06:15.595Z,1.85
2023-01-11T18:08:49.359Z,2.08
2023-01-11T18:11:25.546Z,2.08
2023-01-11T18:13:55.454Z,1.75
2023-01-11T18:16:25.750Z,2.05
2023-01-11T18:18:55.368Z,2.00
2023-01-11T18:21:40.758Z,3.05
2023-01-11T18:24:39.975Z,2.20
2023-01-11T18:27:27.685Z,1.67
2023-01-11T18:29:58.042Z,2.22
2023-01-11T18:32:31.984Z,2.40
2023-01-11T18:35:00.655Z,2.00
2023-01-11T18:37:29.181Z,2.78
2023-01-11T18:39:59.675Z,2.80
2023-01-11T18:42:32.694Z,1.75
2023-01-11T18:45:01.337Z,2.00
2023-01-11T18:47:31.132Z,2.03
2023-01-11T18:49:59.681Z,1.90
2023-01-11T18:52:29.626Z,1.60
2023-01-11T18:54:58.902Z,1.83
2023-01-11T18:57:27.269Z,1.70
2023-01-11T18:59:55.980Z,1.92
2023-01-11T19:02:26.454Z,1.73
2023-01-11T19:04:57.490Z,1.88
2023-01-11T19:07:26.576Z,1.70
2023-01-11T19:09:56.098Z,1.40
2023-01-11T19:12:24.883Z,1.75
2023-01-11T19:14:53.389Z,1.90
2023-01-11T19:17:21.780Z,2.72
2023-01-11T19:19:50.304Z,1.88
2023-01-11T19:22:23.392Z,2.10
2023-01-11T19:24:56.183Z,2.10
2023-01-11T19:27:25.216Z,2.88
2023-01-11T19:29:58.213Z,2.08
2023-01-11T19:32:27.831Z,1.85
2023-01-11T19:34:58.748Z,2.25
2023-01-11T19:37:31.176Z,1.63
2023-01-11T19:40:00.661Z,2.00
2023-01-11T19:42:29.943Z,2.15
2023-01-11T19:44:58.296Z,1.77
2023-01-11T19:47:27.015Z,2.55
2023-01-11T19:49:59.117Z,1.90
2023-01-11T19:52:29.512Z,2.13
2023-01-11T19:54:58.234Z,2.17
2023-01-11T19:57:27.795Z,2.65
2023-01-11T19:59:56.222Z,2.20
2023-01-11T20:02:24.738Z,2.17
2023-01-11T20:04:53.304Z,1.52
2023-01-11T20:07:21.713Z,2.05
2023-01-11T20:09:53.523Z,2.05
2023-01-11T20:12:23.292Z,1.98
2023-01-11T20:14:57.584Z,2.05
2023-01-11T20:17:27.958Z,1.70
2023-01-11T20:19:57.846Z,2.20
2023-01-11T20:22:27.401Z,1.92
2023-01-11T20:24:57.373Z,2.22
2023-01-11T20:27:26.619Z,1.98
2023-01-11T20:29:55.559Z,2.28
2023-01-11T20:32:40.362Z,1.58
2023-01-11T20:35:11.991Z,2.03
2023-01-11T20:37:42.738Z,1.98
2023-01-11T20:40:14.511Z,2.30
2023-01-11T20:42:43.563Z,1.75
2023-01-11T20:45:13.771Z,1.50
2023-01-11T20:47:42.424Z,2.58
2023-01-11T20:50:11.805Z,1.50
2023-01-11T20:52:40.657Z,1.45
2023-01-11T20:55:10.584Z,2.17
2023-01-11T20:57:40.347Z,1.27
2023-01-11T21:02:39.950Z,1.40
2023-01-11T21:05:09.372Z,1.63
2023-01-11T21:07:37.864Z,1.50
2023-01-11T21:10:06.943Z,1.65
2023-01-11T21:12:35.342Z,2.28
2023-01-11T21:15:10.588Z,1.77
2023-01-11T21:17:39.148Z,1.50
2023-01-11T21:20:08.564Z,2.13
2023-01-11T21:22:36.861Z,2.00
2023-01-11T21:25:05.469Z,1.70
2023-01-11T21:27:34.062Z,2.35
2023-01-11T21:30:02.320Z,1.60
2023-01-11T21:32:32.367Z,1.50
2023-01-11T21:35:01.303Z,1.80
2023-01-11T21:37:30.260Z,1.83
2023-01-11T21:39:58.527Z,2.00
2023-01-11T21:42:27.041Z,2.58
2023-01-11T21:44:55.580Z,1.20
2023-01-11T21:47:24.358Z,1.65
2023-01-11T21:49:54.287Z,1.40
2023-01-11T21:52:22.663Z,1.73
2023-01-11T21:54:52.223Z,1.80
2023-01-11T21:57:20.600Z,1.42
2023-01-11T21:59:49.023Z,1.23
2023-01-11T22:02:17.460Z,1.50
2023-01-11T22:04:45.798Z,1.90
2023-01-11T22:07:15.555Z,1.40
2023-01-11T22:09:59.817Z,1.27
2023-01-11T22:12:32.358Z,1.40
2023-01-11T22:15:00.866Z,1.30
2023-01-11T22:17:31.133Z,1.60
2023-01-11T22:19:59.533Z,2.30
2023-01-11T22:22:29.499Z,1.70
2023-01-11T22:24:58.222Z,1.77
2023-01-11T22:27:26.589Z,1.60
2023-01-11T22:29:54.999Z,1.25
2023-01-11T22:32:23.320Z,2.42
2023-01-11T22:34:51.765Z,1.67
2023-01-11T22:37:20.585Z,1.48
2023-01-11T22:39:50.327Z,1.65
2023-01-11T22:42:18.666Z,1.48
2023-01-11T22:44:47.536Z,1.50
2023-01-11T22:47:15.965Z,1.75
2023-01-11T22:49:44.302Z,1.17
2023-01-11T22:52:12.685Z,1.58
2023-01-11T22:54:40.961Z,1.70
2023-01-11T22:57:10.736Z,1.52
2023-01-11T22:59:39.022Z,1.80
2023-01-11T23:02:07.336Z,1.60
2023-01-11T23:04:35.736Z,1.10
2023-01-11T23:07:03.991Z,1.63
2023-01-11T23:09:32.336Z,1.40
2023-01-11T23:12:18.086Z,1.38
2023-01-11T23:14:47.807Z,1.73
2023-01-11T23:17:16.160Z,1.48
2023-01-11T23:19:45.650Z,1.60
2023-01-11T23:22:17.235Z,1.40
2023-01-11T23:24:45.551Z,1.73
2023-01-11T23:27:13.955Z,1.40
2023-01-11T23:29:42.343Z,1.20
2023-01-11T23:32:12.170Z,1.20
2023-01-11T23:34:40.474Z,1.40
2023-01-11T23:37:09.049Z,1.40
2023-01-11T23:39:37.354Z,1.70
2023-01-11T23:42:23.152Z,1.73
2023-01-11T23:44:51.687Z,1.50
2023-01-11T23:47:25.075Z,1.45
2023-01-11T23:49:55.402Z,1.25
2023-01-11T23:52:25.833Z,1.83
2023-01-11T23:54:54.214Z,1.40
2023-01-11T23:57:23.572Z,1.27
2023-01-11T23:59:52.217Z,1.20
